Illizi, Algeria
Current Conditions -  °F | °C
As of 2:00 AM on Thursday 27 Nov 2014 (Local Time) from DAAP Reporting Station
Clear Clear  
Wind Chill: 15°   Ceiling: Unl
Heat Index: 15°   Visibility: 6mi
Dew Point: -5°   Wind: 0mph
Humidity: 25%   Direction: NA
Pressure: 29.91"   Gusts: NA
Location:  26.5°N, 8.42°E
Report Text: DAAP 270100Z 00000KT CAVOK 15/M05 Q1013
Loading
Personal Weather Stations






























Interactive Weather Map New forecast layout! Learn more

10-Day Weather Forecast

Advertisements
Track Severe Weather on mobile